Time;durP1;ratioP1;P1;durP2;ratioP2;P2;SDS_P1;SDS_P2;PMS_P1;PMS_P2;Temp;Humidity;BMP_temperature;BMP_pressure;BME280_temperature;BME280_humidity;BME280_pressure;Samples;Min_cycle;Max_cycle;Signal;HPM_P1;HPM_P2
2022/11/06 00:00:57;;;;;;;4.13;2.73;;;11.40;99.90;;;;;;5019558;28;20206;-69
2022/11/06 00:03:23;;;;;;;4.53;3.17;;;11.40;99.90;;;;;;5023175;28;20193;-68
2022/11/06 00:08:36;;;;;;;10.23;4.30;;;11.40;99.90;;;;;;5029266;28;20193;-67
2022/11/06 00:11:09;;;;;;;7.90;3.03;;;11.50;99.90;;;;;;5021363;28;20182;-68
2022/11/06 00:13:34;;;;;;;7.90;3.53;;;11.60;99.90;;;;;;5031010;28;20191;-67
2022/11/06 00:16:05;;;;;;;5.43;3.57;;;11.60;99.90;;;;;;5031558;28;20191;-69
2022/11/06 00:18:31;;;;;;;6.97;3.00;;;11.60;99.90;;;;;;5020208;28;20179;-68
2022/11/06 00:20:57;;;;;;;8.80;4.30;;;11.50;99.90;;;;;;5013154;28;20225;-68
2022/11/06 00:23:23;;;;;;;5.85;3.50;;;11.60;99.90;;;;;;5013662;28;20643;-68
2022/11/06 00:25:54;;;;;;;5.18;2.95;;;11.70;99.90;;;;;;5031295;28;20198;-70
2022/11/06 00:28:20;;;;;;;3.08;2.42;;;11.70;99.90;;;;;;5013630;28;20827;-69
2022/11/06 00:30:46;;;;;;;9.43;3.63;;;11.70;99.90;;;;;;5031708;28;20293;-68
2022/11/06 00:33:12;;;;;;;5.13;3.58;;;11.70;99.90;;;;;;5032032;28;20524;-69
2022/11/06 00:35:38;;;;;;;4.57;3.60;;;11.60;99.90;;;;;;5031073;28;20187;-68
2022/11/06 00:38:05;;;;;;;7.38;4.35;;;11.60;99.90;;;;;;5028802;28;20256;-69
2022/11/06 00:40:31;;;;;;;4.25;2.50;;;11.70;99.90;;;;;;5031273;28;20551;-70
2022/11/06 00:42:57;;;;;;;7.70;3.63;;;11.70;99.90;;;;;;5013737;28;20817;-69
2022/11/06 00:45:24;;;;;;;8.27;3.17;;;11.70;99.90;;;;;;5026252;28;20245;-69
2022/11/06 00:47:50;;;;;;;5.10;3.33;;;11.70;99.90;;;;;;5020301;28;20210;-68
2022/11/06 00:50:16;;;;;;;6.23;3.20;;;11.80;99.90;;;;;;5033408;28;20236;-68
2022/11/06 00:52:42;;;;;;;3.50;2.53;;;11.80;99.90;;;;;;5030470;28;20200;-68
2022/11/06 00:55:08;;;;;;;5.63;2.53;;;11.80;99.90;;;;;;5026911;28;20218;-68
2022/11/06 00:57:34;;;;;;;4.27;3.67;;;11.80;99.90;;;;;;5017503;28;20214;-68
2022/11/06 00:59:59;;;;;;;5.03;2.20;;;11.80;99.90;;;;;;5029667;28;20198;-69
2022/11/06 01:02:25;;;;;;;7.38;2.83;;;11.80;99.90;;;;;;5033464;28;20260;-68
2022/11/06 01:04:51;;;;;;;4.43;2.50;;;11.80;99.90;;;;;;5033232;28;20190;-69
2022/11/06 01:07:17;;;;;;;6.97;2.33;;;11.80;99.90;;;;;;5032369;28;20273;-69
2022/11/06 01:09:43;;;;;;;2.47;2.27;;;11.80;99.90;;;;;;5033409;28;20183;-68
2022/11/06 01:12:09;;;;;;;6.28;2.20;;;11.80;99.90;;;;;;5000620;28;20194;-68
2022/11/06 01:14:34;;;;;;;5.15;2.28;;;11.80;99.90;;;;;;5031726;28;20241;-68
2022/11/06 01:17:00;;;;;;;7.25;2.53;;;11.90;99.90;;;;;;5015705;28;20662;-69
2022/11/06 01:19:26;;;;;;;7.63;3.20;;;11.90;99.90;;;;;;5016553;28;20186;-69
2022/11/06 01:21:53;;;;;;;4.47;2.85;;;11.80;99.90;;;;;;5033332;28;20218;-68
2022/11/06 01:24:25;;;;;;;3.97;2.53;;;12.00;99.90;;;;;;5026623;28;20188;-68
2022/11/06 01:26:50;;;;;;;5.55;2.25;;;11.90;99.90;;;;;;5035308;28;20190;-68
2022/11/06 01:29:18;;;;;;;5.13;3.42;;;11.90;99.90;;;;;;5032186;28;20677;-69
2022/11/06 01:31:44;;;;;;;4.00;2.42;;;12.00;99.90;;;;;;5034632;28;20191;-68
2022/11/06 01:34:11;;;;;;;5.70;2.47;;;12.00;99.90;;;;;;5033263;28;20182;-66
2022/11/06 01:36:37;;;;;;;2.95;2.72;;;12.00;99.90;;;;;;5027167;28;20176;-68
2022/11/06 01:39:06;;;;;;;2.75;2.42;;;12.00;99.90;;;;;;5032394;28;20529;-68
2022/11/06 01:41:38;;;;;;;2.95;2.70;;;12.00;99.90;;;;;;5030214;28;20210;-69
2022/11/06 01:44:32;;;;;;;3.13;2.30;;;12.00;99.90;;;;;;5028059;28;20198;-68
2022/11/06 01:47:00;;;;;;;4.45;2.42;;;12.10;99.90;;;;;;5008475;28;20205;-68
2022/11/06 01:49:28;;;;;;;2.38;2.17;;;12.00;99.90;;;;;;5033048;28;20289;-68
2022/11/06 01:51:59;;;;;;;4.85;2.50;;;12.10;99.90;;;;;;5031315;28;20547;-67
2022/11/06 01:54:28;;;;;;;2.45;2.13;;;12.20;99.90;;;;;;5032380;28;20225;-68
2022/11/06 01:56:57;;;;;;;2.00;1.83;;;12.10;99.90;;;;;;5029320;28;20183;-68
2022/11/06 01:59:26;;;;;;;3.47;1.77;;;12.10;99.90;;;;;;5034062;28;20187;-67
2022/11/06 02:01:52;;;;;;;2.33;2.13;;;12.00;99.90;;;;;;5029301;28;20238;-68
2022/11/06 02:04:30;;;;;;;3.33;2.47;;;11.90;99.90;;;;;;5023065;28;20694;-67
2022/11/06 02:06:58;;;;;;;3.40;2.97;;;11.90;99.90;;;;;;5019202;28;20184;-67
2022/11/06 02:09:24;;;;;;;3.03;2.63;;;11.90;99.90;;;;;;5021938;28;20187;-67
2022/11/06 02:11:56;;;;;;;1.77;1.67;;;11.90;99.90;;;;;;5029111;28;20199;-67
2022/11/06 02:14:42;;;;;;;5.72;2.05;;;11.80;99.90;;;;;;5029359;28;20183;-70
2022/11/06 02:17:30;;;;;;;5.67;2.27;;;11.70;99.90;;;;;;5021674;28;20226;-69
2022/11/06 02:20:23;;;;;;;2.77;2.60;;;11.70;99.90;;;;;;5030612;28;20265;-68
2022/11/06 02:22:54;;;;;;;2.60;2.00;;;11.70;99.90;;;;;;5022412;28;20306;-69
2022/11/06 02:25:20;;;;;;;4.27;2.33;;;11.80;99.90;;;;;;5019333;28;20183;-69
2022/11/06 02:27:53;;;;;;;2.30;2.08;;;11.90;99.90;;;;;;5034089;28;20186;-68
2022/11/06 02:30:19;;;;;;;4.67;2.47;;;11.80;99.90;;;;;;5028548;28;20191;-66
2022/11/06 02:33:02;;;;;;;4.18;2.63;;;11.80;99.90;;;;;;5023434;28;20241;-69
2022/11/06 02:35:42;;;;;;;2.23;2.00;;;11.80;99.90;;;;;;5030928;28;20225;-67
2022/11/06 02:38:15;;;;;;;4.05;1.65;;;11.80;99.90;;;;;;5033937;28;20185;-68
2022/11/06 02:40:47;;;;;;;3.77;2.23;;;11.80;99.90;;;;;;5026874;28;20218;-69
2022/11/06 02:43:15;;;;;;;4.93;2.08;;;11.80;99.90;;;;;;5033679;28;20206;-69
2022/11/06 02:45:53;;;;;;;5.93;2.85;;;11.80;99.90;;;;;;5033819;28;20183;-69
2022/11/06 02:48:25;;;;;;;3.40;1.80;;;11.90;99.90;;;;;;5032632;28;20182;-69
2022/11/06 02:50:53;;;;;;;14.10;2.88;;;11.90;99.90;;;;;;5032244;28;20186;-68
2022/11/06 02:53:24;;;;;;;3.55;2.08;;;11.90;99.90;;;;;;5030775;28;20193;-68
2022/11/06 02:55:54;;;;;;;4.30;2.03;;;12.00;99.90;;;;;;5033408;28;20183;-68
2022/11/06 02:58:33;;;;;;;6.28;1.85;;;11.90;99.90;;;;;;5032076;28;20194;-69
2022/11/06 03:01:17;;;;;;;3.95;2.63;;;11.90;99.90;;;;;;5022772;28;20198;-69
2022/11/06 03:03:47;;;;;;;3.53;1.88;;;12.10;99.90;;;;;;5029658;28;20174;-68
2022/11/06 03:06:31;;;;;;;6.53;2.30;;;12.10;99.90;;;;;;5029854;28;20178;-69
2022/11/06 03:09:06;;;;;;;6.90;2.55;;;12.00;99.90;;;;;;5030386;28;20186;-68
2022/11/06 03:11:40;;;;;;;3.38;1.90;;;12.10;99.90;;;;;;5033200;28;20217;-68
2022/11/06 03:14:18;;;;;;;2.03;1.92;;;12.10;99.90;;;;;;5025968;28;20211;-69
2022/11/06 03:17:05;;;;;;;3.55;2.00;;;12.20;99.90;;;;;;5029001;28;20236;-70
2022/11/06 03:19:36;;;;;;;2.47;2.28;;;12.20;99.90;;;;;;5027413;28;20185;-68
2022/11/06 03:22:25;;;;;;;7.97;2.30;;;12.10;99.90;;;;;;5030226;28;20614;-68
2022/11/06 03:25:33;;;;;;;4.70;2.38;;;12.10;99.90;;;;;;5030183;28;20633;-67
2022/11/06 03:28:31;;;;;;;2.50;2.13;;;12.10;99.90;;;;;;4966792;28;20185;-69
2022/11/06 03:31:04;;;;;;;2.17;1.75;;;12.20;99.90;;;;;;4959584;28;20212;-68
2022/11/06 03:33:46;;;;;;;1.67;1.55;;;12.10;99.90;;;;;;5010658;28;20246;-68
2022/11/06 03:36:24;;;;;;;2.28;2.13;;;12.20;99.90;;;;;;5021248;28;20670;-69
2022/11/06 03:38:57;;;;;;;3.95;1.88;;;12.20;99.90;;;;;;5029160;28;20749;-69
2022/11/06 03:41:40;;;;;;;4.47;1.83;;;12.00;99.90;;;;;;5031353;28;20210;-69
2022/11/06 03:44:12;;;;;;;3.83;2.00;;;11.90;99.90;;;;;;5032672;28;20312;-68
2022/11/06 03:46:43;;;;;;;5.07;2.00;;;11.90;99.90;;;;;;5032198;28;20182;-69
2022/11/06 03:49:14;;;;;;;2.90;2.30;;;11.90;99.90;;;;;;5029258;28;20193;-69
2022/11/06 03:51:52;;;;;;;2.47;1.95;;;11.90;99.90;;;;;;5030992;28;20190;-68
2022/11/06 03:54:29;;;;;;;2.90;2.38;;;11.80;99.90;;;;;;5031263;28;20544;-68
2022/11/06 03:57:08;;;;;;;5.90;2.07;;;11.80;99.90;;;;;;5030766;28;20236;-68
2022/11/06 03:59:49;;;;;;;2.07;1.80;;;11.90;99.90;;;;;;5028044;28;20265;-67
2022/11/06 04:02:16;;;;;;;1.77;1.67;;;11.80;99.90;;;;;;5029149;28;20275;-68
2022/11/06 04:04:56;;;;;;;2.35;1.98;;;11.80;99.90;;;;;;5032030;28;20721;-68
2022/11/06 04:07:36;;;;;;;2.80;1.52;;;11.80;99.90;;;;;;5017778;28;20183;-68
2022/11/06 04:15:41;;;;;;;9.13;1.95;;;11.90;99.90;;;;;;5030068;28;20674;-68
2022/11/06 04:18:17;;;;;;;4.53;1.67;;;11.80;99.90;;;;;;5014331;28;20183;-68
2022/11/06 04:21:21;;;;;;;4.13;1.90;;;11.70;99.90;;;;;;5025008;28;20276;-68
2022/11/06 04:27:00;;;;;;;6.10;2.00;;;11.60;99.90;;;;;;5028448;28;20237;-68
2022/11/06 04:29:42;;;;;;;5.25;2.80;;;11.60;99.90;;;;;;5023453;28;20260;-68
2022/11/06 04:32:29;;;;;;;6.83;2.00;;;11.70;99.90;;;;;;5035144;28;20196;-67
2022/11/06 04:35:21;;;;;;;2.73;1.77;;;11.70;99.90;;;;;;5028203;28;20269;-67
2022/11/06 04:37:55;;;;;;;2.90;1.97;;;11.60;99.90;;;;;;5016040;28;20198;-67
2022/11/06 04:40:44;;;;;;;3.73;2.33;;;11.60;99.90;;;;;;5036114;28;20251;-68
2022/11/06 04:43:40;;;;;;;8.63;2.37;;;11.60;99.90;;;;;;5023662;28;20236;-67
2022/11/06 04:46:09;;;;;;;1.77;1.67;;;11.60;99.90;;;;;;5022894;28;20198;-68
2022/11/06 04:48:37;;;;;;;2.37;2.10;;;11.50;99.90;;;;;;5032765;28;20183;-68
2022/11/06 04:51:07;;;;;;;3.30;2.77;;;11.50;99.90;;;;;;5035644;28;20187;-68
2022/11/06 04:53:34;;;;;;;5.73;3.50;;;11.50;99.90;;;;;;5021362;28;20183;-69
2022/11/06 04:56:11;;;;;;;1.73;1.50;;;11.40;99.90;;;;;;5032815;28;20249;-69
2022/11/06 04:58:37;;;;;;;1.73;1.63;;;11.40;99.90;;;;;;5035087;28;20201;-69
2022/11/06 05:01:04;;;;;;;5.23;2.13;;;11.40;99.90;;;;;;5034189;28;20725;-68
2022/11/06 05:03:29;;;;;;;2.40;1.80;;;11.40;99.90;;;;;;5015104;28;20213;-68
2022/11/06 05:05:55;;;;;;;2.73;2.53;;;11.50;99.90;;;;;;5031805;28;20270;-68
2022/11/06 05:08:21;;;;;;;2.77;2.57;;;11.50;99.90;;;;;;5026141;28;20183;-67
2022/11/06 05:10:47;;;;;;;5.17;2.23;;;11.40;99.90;;;;;;5034795;28;20186;-70
2022/11/06 05:13:13;;;;;;;1.83;1.73;;;11.40;99.90;;;;;;5029439;28;20190;-68
2022/11/06 05:15:40;;;;;;;1.77;1.67;;;11.40;99.90;;;;;;5034615;28;20189;-69
2022/11/06 05:18:06;;;;;;;3.10;2.50;;;11.40;99.90;;;;;;5035506;28;20182;-69
2022/11/06 05:20:32;;;;;;;5.37;2.43;;;11.40;99.90;;;;;;5029604;28;20187;-67
2022/11/06 05:23:01;;;;;;;2.50;2.23;;;11.40;99.90;;;;;;5032853;28;20222;-67
2022/11/06 05:25:38;;;;;;;4.13;2.17;;;11.40;99.90;;;;;;5017408;28;20183;-67
2022/11/06 05:28:05;;;;;;;2.90;2.40;;;11.40;99.90;;;;;;5038419;28;20182;-68
2022/11/06 05:30:32;;;;;;;4.43;2.33;;;11.50;99.90;;;;;;5034582;28;20708;-67
2022/11/06 05:32:57;;;;;;;2.47;2.27;;;11.50;99.90;;;;;;5031054;28;20187;-68
2022/11/06 05:35:23;;;;;;;4.80;2.93;;;11.50;99.90;;;;;;5016872;28;20533;-67
2022/11/06 05:37:49;;;;;;;2.90;2.60;;;11.50;99.90;;;;;;5018125;28;20675;-67
2022/11/06 05:40:15;;;;;;;2.50;2.17;;;11.50;99.90;;;;;;5019912;28;20186;-68
2022/11/06 05:42:42;;;;;;;2.92;2.20;;;11.60;99.90;;;;;;5025216;28;20214;-68
2022/11/06 05:45:10;;;;;;;5.23;2.47;;;11.60;99.90;;;;;;5030978;28;20189;-69
2022/11/06 05:47:39;;;;;;;6.67;2.23;;;11.70;99.90;;;;;;5033215;28;20210;-69
2022/11/06 05:50:05;;;;;;;3.20;2.30;;;11.70;99.90;;;;;;5021127;28;20645;-67
2022/11/06 05:52:33;;;;;;;5.20;2.45;;;11.70;99.90;;;;;;5019516;28;20597;-67
2022/11/06 05:54:58;;;;;;;4.72;2.05;;;11.80;99.90;;;;;;5034339;28;20578;-67
2022/11/06 05:57:24;;;;;;;5.07;2.42;;;11.80;99.90;;;;;;5033165;28;20182;-65
2022/11/06 05:59:50;;;;;;;5.77;2.40;;;11.80;99.90;;;;;;5027535;28;20199;-69
2022/11/06 06:02:16;;;;;;;5.10;2.05;;;11.70;99.90;;;;;;5011518;28;20213;-69
2022/11/06 06:04:41;;;;;;;3.33;2.23;;;11.80;99.90;;;;;;5034153;28;20197;-69
2022/11/06 06:07:07;;;;;;;2.70;1.90;;;11.80;99.90;;;;;;5031685;28;20265;-69
2022/11/06 06:09:33;;;;;;;3.33;2.03;;;11.80;99.90;;;;;;5032311;28;20203;-69
2022/11/06 06:11:58;;;;;;;3.08;2.13;;;11.90;99.90;;;;;;5033695;28;20203;-69
2022/11/06 06:14:24;;;;;;;6.28;2.70;;;11.80;99.90;;;;;;5016169;28;20627;-69
2022/11/06 06:16:50;;;;;;;2.05;1.63;;;11.90;99.90;;;;;;5033460;28;20198;-69
2022/11/06 06:19:15;;;;;;;2.58;1.83;;;12.00;99.90;;;;;;5033779;28;20187;-70
2022/11/06 06:21:41;;;;;;;4.95;2.58;;;12.00;99.90;;;;;;5028101;28;20298;-70
2022/11/06 06:24:07;;;;;;;6.65;2.33;;;12.10;99.90;;;;;;5031694;28;20222;-70
2022/11/06 06:26:32;;;;;;;8.20;3.50;;;12.10;99.90;;;;;;5034203;28;20218;-70
2022/11/06 06:28:58;;;;;;;3.55;2.85;;;12.10;99.90;;;;;;5031672;28;20557;-67
2022/11/06 06:31:24;;;;;;;4.22;2.58;;;12.00;99.90;;;;;;5027813;28;20668;-69
2022/11/06 06:33:49;;;;;;;6.40;2.38;;;12.10;99.90;;;;;;5009265;28;20412;-70
2022/11/06 06:36:15;;;;;;;2.40;2.20;;;12.00;99.90;;;;;;5020859;28;20266;-69
2022/11/06 06:38:41;;;;;;;2.42;1.67;;;12.10;99.90;;;;;;5032413;28;20186;-69
2022/11/06 06:41:08;;;;;;;5.15;2.35;;;12.10;99.90;;;;;;5034155;28;20242;-68
2022/11/06 06:43:34;;;;;;;2.63;2.30;;;12.20;99.90;;;;;;5032634;28;20238;-69
2022/11/06 06:46:02;;;;;;;6.35;1.98;;;12.20;99.90;;;;;;5027247;28;20248;-68
2022/11/06 06:48:29;;;;;;;2.38;2.13;;;12.20;99.90;;;;;;5032671;28;20183;-69
2022/11/06 06:51:02;;;;;;;4.65;2.20;;;12.10;99.90;;;;;;5030113;28;20210;-70
2022/11/06 06:53:28;;;;;;;3.92;1.92;;;12.10;99.90;;;;;;5031870;28;20206;-70
2022/11/06 06:55:54;;;;;;;3.60;1.60;;;12.20;99.90;;;;;;5032773;28;20648;-69
2022/11/06 06:58:19;;;;;;;4.60;1.90;;;12.20;99.90;;;;;;5033275;28;20194;-69
2022/11/06 07:00:46;;;;;;;1.98;1.88;;;12.30;99.90;;;;;;5022527;28;20662;-69
2022/11/06 07:03:12;;;;;;;5.22;3.30;;;12.40;99.90;;;;;;5025223;28;20217;-69
2022/11/06 07:05:38;;;;;;;1.70;1.60;;;12.50;99.90;;;;;;5008925;28;20186;-68
2022/11/06 07:08:04;;;;;;;2.53;2.33;;;12.60;99.90;;;;;;5022704;28;20182;-68
2022/11/06 07:10:31;;;;;;;2.00;1.50;;;12.60;99.90;;;;;;5032851;28;20285;-68
2022/11/06 07:13:03;;;;;;;5.43;1.90;;;12.60;99.90;;;;;;5031272;28;20202;-68
2022/11/06 07:15:29;;;;;;;2.20;1.98;;;12.70;99.90;;;;;;5030895;28;20178;-68
2022/11/06 07:17:59;;;;;;;2.33;1.65;;;12.70;99.90;;;;;;5025914;28;20659;-69
2022/11/06 07:20:25;;;;;;;2.78;1.90;;;12.70;99.90;;;;;;5020719;28;20548;-71
2022/11/06 07:22:50;;;;;;;4.13;2.28;;;12.50;99.90;;;;;;5028668;28;20207;-68
2022/11/06 07:25:16;;;;;;;1.75;1.58;;;12.60;99.90;;;;;;5025078;28;20594;-68
2022/11/06 07:27:42;;;;;;;6.82;2.03;;;12.70;99.90;;;;;;5031951;28;20670;-66
2022/11/06 07:30:08;;;;;;;3.97;2.97;;;12.70;99.90;;;;;;5022411;28;20575;-68
2022/11/06 07:32:34;;;;;;;4.68;2.38;;;12.70;99.90;;;;;;5029320;28;20324;-68
2022/11/06 07:34:59;;;;;;;3.63;2.28;;;12.70;99.90;;;;;;5029615;28;20646;-68
2022/11/06 07:37:25;;;;;;;2.75;2.50;;;12.70;99.90;;;;;;5032623;28;20213;-68
2022/11/06 07:39:51;;;;;;;2.22;1.55;;;12.70;99.90;;;;;;5031166;28;20184;-69
2022/11/06 07:42:16;;;;;;;2.30;1.73;;;12.80;99.90;;;;;;5030455;28;20682;-68
2022/11/06 07:44:42;;;;;;;2.75;1.80;;;12.80;99.90;;;;;;5022599;28;20199;-68
2022/11/06 07:47:08;;;;;;;5.80;1.40;;;12.80;99.90;;;;;;5031947;28;20245;-68
2022/11/06 07:49:33;;;;;;;2.67;1.48;;;12.80;99.90;;;;;;5026818;28;20675;-68
2022/11/06 07:51:59;;;;;;;2.25;2.03;;;12.70;99.90;;;;;;5002826;28;20718;-69
2022/11/06 07:54:25;;;;;;;3.70;1.70;;;12.80;99.90;;;;;;5029930;28;20186;-68
2022/11/06 07:56:50;;;;;;;1.42;1.33;;;12.70;99.90;;;;;;5025053;28;20202;-68
2022/11/06 07:59:16;;;;;;;3.22;1.73;;;12.70;99.90;;;;;;5019293;28;20183;-69
2022/11/06 08:01:42;;;;;;;4.05;2.05;;;12.80;99.90;;;;;;5023789;28;20211;-69
2022/11/06 08:04:07;;;;;;;2.05;1.80;;;12.90;99.90;;;;;;5027995;28;20221;-69
2022/11/06 08:06:33;;;;;;;4.32;1.85;;;13.00;99.90;;;;;;5013329;28;20183;-68
2022/11/06 08:08:58;;;;;;;3.45;1.60;;;13.20;99.90;;;;;;5013918;28;20191;-69
2022/11/06 08:11:24;;;;;;;2.22;2.00;;;13.30;99.90;;;;;;5031319;28;20198;-69
2022/11/06 08:13:50;;;;;;;6.38;1.50;;;13.50;99.90;;;;;;5030954;28;20198;-68
2022/11/06 08:16:15;;;;;;;3.15;2.00;;;13.50;99.90;;;;;;5030070;28;20210;-68
2022/11/06 08:18:42;;;;;;;2.30;1.75;;;13.40;99.90;;;;;;5013442;28;20210;-68
2022/11/06 08:21:08;;;;;;;5.43;1.92;;;13.40;99.90;;;;;;5004200;28;20214;-68
2022/11/06 08:23:35;;;;;;;4.53;1.48;;;13.30;99.90;;;;;;5043498;28;20186;-69
2022/11/06 08:26:02;;;;;;;1.80;1.50;;;13.30;99.90;;;;;;5030579;28;20186;-68
2022/11/06 08:28:28;;;;;;;3.67;2.10;;;13.30;99.90;;;;;;5028317;28;20190;-68
2022/11/06 08:30:54;;;;;;;3.08;1.95;;;13.40;99.90;;;;;;5030481;28;20277;-69
2022/11/06 08:33:21;;;;;;;2.20;1.80;;;13.30;99.90;;;;;;5022976;28;20286;-69
2022/11/06 08:35:47;;;;;;;5.05;1.80;;;13.30;99.90;;;;;;5030155;28;20190;-69
2022/11/06 08:38:13;;;;;;;1.90;1.52;;;13.40;99.90;;;;;;5032044;28;20198;-69
2022/11/06 08:40:39;;;;;;;3.50;1.98;;;13.30;99.90;;;;;;5030138;28;20675;-67
2022/11/06 08:43:07;;;;;;;2.85;1.98;;;13.20;99.90;;;;;;5030077;28;20218;-69
2022/11/06 08:45:42;;;;;;;6.88;2.25;;;13.20;99.90;;;;;;5025249;28;20240;-69
2022/11/06 08:48:09;;;;;;;3.97;1.52;;;13.30;99.90;;;;;;5025560;28;20189;-68
2022/11/06 08:50:37;;;;;;;2.20;1.88;;;13.20;99.90;;;;;;5031885;28;20207;-67
2022/11/06 08:53:05;;;;;;;5.00;2.35;;;13.20;99.90;;;;;;5030239;28;20234;-69
2022/11/06 08:55:34;;;;;;;1.75;1.65;;;13.40;99.90;;;;;;5014811;28;20246;-68
2022/11/06 08:58:00;;;;;;;2.17;1.85;;;13.30;99.90;;;;;;4998470;28;20196;-66
2022/11/06 09:00:27;;;;;;;3.45;1.90;;;13.30;99.90;;;;;;5029968;28;20236;-68
2022/11/06 09:03:08;;;;;;;2.33;1.75;;;13.20;99.90;;;;;;5030211;28;20206;-69
2022/11/06 09:05:34;;;;;;;4.90;1.98;;;13.20;99.90;;;;;;5031114;28;20225;-69
2022/11/06 09:08:00;;;;;;;2.72;2.10;;;13.20;99.90;;;;;;5032056;28;20210;-68
2022/11/06 09:10:27;;;;;;;3.78;2.20;;;13.30;99.90;;;;;;5027167;28;20181;-69
2022/11/06 09:12:54;;;;;;;3.20;1.85;;;13.30;99.90;;;;;;5031869;28;20191;-68
2022/11/06 09:15:20;;;;;;;2.03;1.88;;;13.30;99.90;;;;;;5034698;28;20214;-69
2022/11/06 09:17:48;;;;;;;5.25;2.40;;;13.30;99.90;;;;;;5027910;28;20652;-69
2022/11/06 09:20:15;;;;;;;4.53;1.40;;;13.40;99.90;;;;;;5030049;28;20190;-69
2022/11/06 09:22:41;;;;;;;2.42;1.92;;;13.50;99.90;;;;;;5032036;28;20230;-69
2022/11/06 09:25:08;;;;;;;2.35;1.88;;;13.50;99.90;;;;;;5034231;28;20190;-69
2022/11/06 09:27:44;;;;;;;2.40;1.40;;;13.50;99.90;;;;;;5032708;28;20641;-69
2022/11/06 09:30:12;;;;;;;2.65;1.95;;;13.60;99.90;;;;;;5026062;28;20604;-68
2022/11/06 09:32:38;;;;;;;8.68;2.60;;;13.50;99.90;;;;;;5026342;28;20265;-67
2022/11/06 09:35:04;;;;;;;2.70;1.90;;;13.50;99.90;;;;;;5028336;28;20215;-69
2022/11/06 09:37:30;;;;;;;3.65;2.05;;;13.60;99.90;;;;;;5030722;28;20264;-67
2022/11/06 09:39:56;;;;;;;4.45;2.60;;;13.60;99.90;;;;;;5029765;28;20643;-68
2022/11/06 09:42:43;;;;;;;2.75;2.50;;;13.70;99.90;;;;;;5033224;28;20217;-68
2022/11/06 09:45:21;;;;;;;3.15;1.90;;;13.80;99.90;;;;;;5033769;28;20635;-69
2022/11/06 09:47:59;;;;;;;4.07;2.28;;;14.00;99.90;;;;;;5024521;28;20229;-69
2022/11/06 09:50:30;;;;;;;6.90;2.58;;;14.20;99.90;;;;;;5026099;28;20183;-69
2022/11/06 09:53:05;;;;;;;4.03;2.30;;;14.20;99.90;;;;;;5020143;28;20178;-68
2022/11/06 09:55:36;;;;;;;6.75;3.00;;;14.40;99.90;;;;;;5032252;28;20190;-69
2022/11/06 09:58:10;;;;;;;3.03;1.88;;;14.50;99.90;;;;;;5025562;28;20291;-69
2022/11/06 10:00:37;;;;;;;4.43;2.47;;;14.70;99.90;;;;;;5034174;28;20183;-69
2022/11/06 10:03:11;;;;;;;4.75;2.15;;;14.60;99.90;;;;;;5034194;28;20717;-69
2022/11/06 10:05:39;;;;;;;1.75;1.60;;;14.50;99.90;;;;;;5034244;28;20182;-69
2022/11/06 10:08:24;;;;;;;4.20;1.67;;;14.50;99.90;;;;;;5024470;28;20183;-69
2022/11/06 10:11:24;;;;;;;1.95;1.70;;;14.30;99.90;;;;;;5022167;28;20263;-69
2022/11/06 10:14:24;;;;;;;11.43;2.92;;;14.10;99.90;;;;;;5019599;28;20194;-69
2022/11/06 10:17:10;;;;;;;3.05;1.67;;;14.10;99.90;;;;;;5031957;28;20286;-68
2022/11/06 10:19:49;;;;;;;1.80;1.55;;;14.00;99.90;;;;;;5022030;28;20183;-69
2022/11/06 10:22:24;;;;;;;2.22;2.03;;;14.10;99.90;;;;;;5032742;28;20213;-69
2022/11/06 10:24:58;;;;;;;5.95;1.80;;;14.00;99.90;;;;;;5033922;28;20185;-69
2022/11/06 10:27:40;;;;;;;2.92;1.83;;;13.90;99.90;;;;;;5032417;28;20519;-68
2022/11/06 10:30:17;;;;;;;4.53;1.65;;;13.80;99.90;;;;;;5032381;28;20194;-69
2022/11/06 10:32:46;;;;;;;5.13;2.78;;;13.60;99.90;;;;;;5032934;28;20204;-67
2022/11/06 10:35:32;;;;;;;4.07;3.50;;;13.30;99.90;;;;;;5033826;28;20214;-68
2022/11/06 10:38:17;;;;;;;3.65;2.65;;;13.20;99.90;;;;;;5031637;28;20210;-66
2022/11/06 10:40:47;;;;;;;8.25;2.03;;;13.10;99.90;;;;;;5023568;28;20194;-68
2022/11/06 10:43:34;;;;;;;5.80;1.40;;;13.20;99.90;;;;;;5030500;28;20187;-71
2022/11/06 10:46:19;;;;;;;3.90;1.88;;;13.20;99.90;;;;;;5023657;28;20175;-69
2022/11/06 10:48:58;;;;;;;2.40;2.20;;;13.30;99.90;;;;;;5024558;28;20175;-68
2022/11/06 10:51:50;;;;;;;2.22;1.58;;;13.40;99.90;;;;;;5027348;28;20328;-69
2022/11/06 10:54:19;;;;;;;4.00;1.60;;;13.40;99.90;;;;;;5029928;28;20183;-70
2022/11/06 10:57:09;;;;;;;4.57;2.38;;;13.30;99.90;;;;;;5033131;28;20210;-67
2022/11/06 10:59:35;;;;;;;5.50;1.40;;;13.40;99.90;;;;;;5026066;28;20206;-69
2022/11/06 11:02:01;;;;;;;5.68;2.42;;;13.40;99.90;;;;;;5008560;28;20214;-68
2022/11/06 11:04:26;;;;;;;3.97;2.83;;;13.50;99.90;;;;;;5030755;28;20186;-68
2022/11/06 11:06:52;;;;;;;2.53;2.33;;;13.70;99.90;;;;;;5014785;28;20194;-68
2022/11/06 11:09:29;;;;;;;5.15;1.98;;;13.70;99.90;;;;;;5015133;28;20191;-69
2022/11/06 11:11:55;;;;;;;2.65;2.33;;;13.70;99.90;;;;;;5024118;28;20224;-68
2022/11/06 11:14:29;;;;;;;3.50;2.00;;;13.70;99.90;;;;;;5031459;28;20217;-70
2022/11/06 11:16:59;;;;;;;2.58;1.80;;;13.70;99.90;;;;;;5025861;28;20183;-70
2022/11/06 11:19:33;;;;;;;2.58;2.03;;;13.60;99.90;;;;;;5022019;28;20548;-67
2022/11/06 11:22:04;;;;;;;4.28;2.45;;;13.60;99.90;;;;;;5031209;28;20197;-68
2022/11/06 11:24:30;;;;;;;3.25;1.75;;;13.70;99.90;;;;;;5024512;28;20183;-69
2022/11/06 11:27:03;;;;;;;2.45;1.85;;;13.60;99.90;;;;;;5030590;28;20611;-68
2022/11/06 11:29:33;;;;;;;4.03;1.63;;;13.60;99.90;;;;;;5027627;28;20349;-70
2022/11/06 11:32:05;;;;;;;3.22;2.25;;;13.60;99.90;;;;;;5032066;28;20193;-70
2022/11/06 11:34:34;;;;;;;2.72;1.50;;;13.40;99.90;;;;;;5032507;28;20269;-69
2022/11/06 11:37:01;;;;;;;6.45;1.92;;;13.50;99.90;;;;;;5030588;28;20347;-69
2022/11/06 11:39:35;;;;;;;1.63;1.52;;;13.60;99.90;;;;;;5047933;28;20293;-67
2022/11/06 11:42:25;;;;;;;8.15;1.90;;;13.50;99.90;;;;;;5025826;28;20206;-70
2022/11/06 11:45:12;;;;;;;2.83;1.90;;;13.30;99.90;;;;;;5031159;28;20293;-69
2022/11/06 11:47:45;;;;;;;6.07;2.63;;;13.30;99.90;;;;;;5023679;28;20210;-68
2022/11/06 11:50:26;;;;;;;3.03;1.92;;;13.30;99.90;;;;;;5031059;28;20196;-70
2022/11/06 11:52:59;;;;;;;5.35;1.40;;;13.30;99.90;;;;;;5030956;28;20240;-69
2022/11/06 11:55:27;;;;;;;6.10;2.33;;;13.40;99.90;;;;;;5032304;28;20182;-68
2022/11/06 11:57:56;;;;;;;3.05;1.38;;;13.30;99.90;;;;;;5020352;28;20237;-69
2022/11/06 12:00:22;;;;;;;3.05;1.33;;;13.30;99.90;;;;;;5030561;28;20656;-70
2022/11/06 12:02:50;;;;;;;5.70;1.60;;;13.30;99.90;;;;;;5032233;28;20205;-69
2022/11/06 12:05:22;;;;;;;5.80;1.58;;;13.20;99.90;;;;;;5030968;28;20174;-70
2022/11/06 12:07:52;;;;;;;6.53;2.03;;;13.20;99.90;;;;;;5018077;28;20663;-69
2022/11/06 12:10:36;;;;;;;6.30;3.05;;;13.20;99.90;;;;;;5028551;28;20190;-70
2022/11/06 12:13:23;;;;;;;4.05;2.25;;;13.20;99.90;;;;;;5031742;28;20186;-69
2022/11/06 12:16:07;;;;;;;3.03;2.13;;;13.20;99.90;;;;;;5026657;28;20175;-70
2022/11/06 12:18:45;;;;;;;2.88;2.13;;;13.10;99.90;;;;;;5025268;28;20249;-69
2022/11/06 12:21:19;;;;;;;2.58;2.38;;;13.00;99.90;;;;;;5029366;28;20210;-69
2022/11/06 12:24:05;;;;;;;3.00;2.47;;;13.00;99.90;;;;;;5028071;28;20194;-68
2022/11/06 12:26:51;;;;;;;2.10;1.90;;;12.70;99.90;;;;;;5030915;28;20194;-70
2022/11/06 12:29:29;;;;;;;2.67;2.08;;;12.50;99.90;;;;;;4992909;28;20241;-68
2022/11/06 12:32:17;;;;;;;5.43;2.28;;;12.50;99.90;;;;;;5031803;28;20646;-68
2022/11/06 12:34:52;;;;;;;6.60;2.97;;;12.50;99.90;;;;;;5030252;28;20217;-70
2022/11/06 12:37:25;;;;;;;2.20;2.00;;;12.40;99.90;;;;;;5028306;28;20182;-69
2022/11/06 12:40:21;;;;;;;3.90;2.20;;;12.30;99.90;;;;;;5025362;28;20210;-68
2022/11/06 12:43:22;;;;;;;9.90;4.38;;;12.40;99.90;;;;;;5028017;28;20218;-68
2022/11/06 12:46:37;;;;;;;7.05;2.67;;;12.40;99.90;;;;;;5023832;28;20191;-65
2022/11/06 12:49:24;;;;;;;4.63;2.40;;;12.30;99.90;;;;;;5025523;28;20182;-69
2022/11/06 12:52:09;;;;;;;4.80;2.00;;;12.20;99.90;;;;;;5035087;28;20198;-68
2022/11/06 12:55:11;;;;;;;3.25;2.40;;;12.10;99.90;;;;;;5022701;28;20189;-70
2022/11/06 12:57:43;;;;;;;3.10;2.25;;;12.00;99.90;;;;;;5028779;28;20189;-69
2022/11/06 13:00:15;;;;;;;2.55;2.00;;;12.00;99.90;;;;;;5033676;28;20736;-67
2022/11/06 13:03:14;;;;;;;4.63;2.08;;;11.90;99.90;;;;;;5029172;28;20217;-67
2022/11/06 13:05:59;;;;;;;4.00;2.23;;;12.00;99.90;;;;;;5029136;28;20635;-70
2022/11/06 13:08:39;;;;;;;1.70;1.60;;;11.80;99.90;;;;;;5033821;28;20235;-67
2022/11/06 13:11:39;;;;;;;4.53;2.28;;;11.80;99.90;;;;;;5030459;28;20785;-68
2022/11/06 13:14:29;;;;;;;2.77;1.93;;;11.80;99.90;;;;;;5033800;28;20179;-70
2022/11/06 13:17:36;;;;;;;5.80;2.50;;;11.70;99.90;;;;;;5034272;28;20183;-68
2022/11/06 13:20:19;;;;;;;3.20;2.53;;;11.60;99.90;;;;;;5001207;28;20229;-68
2022/11/06 13:23:03;;;;;;;3.23;2.50;;;11.70;99.90;;;;;;5031961;28;20216;-68